createdAt,value
2022-12-29T00:00:41.819Z,61.06
2022-12-29T00:03:12.829Z,61.29
2022-12-29T00:05:44.184Z,61.48
2022-12-29T00:08:18.578Z,61.17
2022-12-29T00:10:51.950Z,61.43
2022-12-29T00:13:37.038Z,61.60
2022-12-29T00:16:10.982Z,61.40
2022-12-29T00:18:41.351Z,60.53
2022-12-29T00:21:34.153Z,60.75
2022-12-29T00:24:23.166Z,61.00
2022-12-29T00:27:14.924Z,60.27
2022-12-29T00:29:57.439Z,60.69
2022-12-29T00:32:40.317Z,60.40
2022-12-29T00:35:13.999Z,59.45
2022-12-29T00:38:04.161Z,59.54
2022-12-29T00:40:47.537Z,59.96
2022-12-29T00:43:34.364Z,60.16
2022-12-29T00:46:05.942Z,59.96
2022-12-29T00:48:48.292Z,59.93
2022-12-29T00:51:18.493Z,60.13
2022-12-29T00:53:49.792Z,60.35
2022-12-29T00:56:21.755Z,60.13
2022-12-29T00:58:56.177Z,59.77
2022-12-29T01:01:26.404Z,59.83
2022-12-29T01:04:03.673Z,59.83
2022-12-29T01:06:35.564Z,60.47
2022-12-29T01:09:19.908Z,59.62
2022-12-29T01:11:52.361Z,59.83
2022-12-29T01:14:29.554Z,60.11
2022-12-29T01:17:01.499Z,59.92
2022-12-29T01:19:38.818Z,59.78
2022-12-29T01:22:08.947Z,59.95
2022-12-29T01:24:39.421Z,59.08
2022-12-29T01:27:09.503Z,59.53
2022-12-29T01:29:42.481Z,59.97
2022-12-29T01:32:14.210Z,59.57
2022-12-29T01:34:45.659Z,59.58
2022-12-29T01:37:15.829Z,59.70
2022-12-29T01:39:46.320Z,58.95
2022-12-29T01:42:22.205Z,58.97
2022-12-29T01:45:01.260Z,59.33
2022-12-29T01:47:39.796Z,59.46
2022-12-29T01:50:17.135Z,59.12
2022-12-29T01:53:00.380Z,59.33
2022-12-29T01:55:35.222Z,59.00
2022-12-29T01:58:09.568Z,58.80
2022-12-29T02:00:43.455Z,58.59
2022-12-29T02:03:18.249Z,58.37
2022-12-29T02:05:57.948Z,58.30
2022-12-29T02:08:35.027Z,58.28
2022-12-29T02:11:05.373Z,58.29
2022-12-29T02:13:38.243Z,58.05
2022-12-29T02:16:27.867Z,58.27
2022-12-29T02:19:18.671Z,58.09
2022-12-29T02:22:04.667Z,58.22
2022-12-29T02:25:00.504Z,57.43
2022-12-29T02:27:53.557Z,57.55
2022-12-29T02:30:47.725Z,57.51
2022-12-29T02:33:40.522Z,57.29
2022-12-29T02:36:26.920Z,57.63
2022-12-29T02:39:08.795Z,58.10
2022-12-29T02:41:54.376Z,58.08
2022-12-29T02:44:39.005Z,58.22
2022-12-29T02:47:20.653Z,58.87
2022-12-29T02:50:02.345Z,58.70
2022-12-29T02:52:42.123Z,58.89
2022-12-29T02:55:12.176Z,59.39
2022-12-29T02:57:44.640Z,58.83
2022-12-29T03:00:22.004Z,59.02
2022-12-29T03:03:28.842Z,58.71
2022-12-29T03:06:23.166Z,58.53
2022-12-29T03:09:06.818Z,57.90
2022-12-29T03:12:14.191Z,57.88
2022-12-29T03:15:14.126Z,57.42
2022-12-29T03:17:55.736Z,57.21
2022-12-29T03:20:44.206Z,56.60
2022-12-29T03:23:18.461Z,56.82
2022-12-29T03:25:55.136Z,57.50
2022-12-29T03:28:36.019Z,56.70
2022-12-29T03:31:11.490Z,56.52
2022-12-29T03:33:47.577Z,57.08
2022-12-29T03:36:30.456Z,55.83
2022-12-29T03:39:08.052Z,56.74
2022-12-29T03:41:41.575Z,56.05
2022-12-29T03:44:12.997Z,55.76
2022-12-29T03:46:43.648Z,55.64
2022-12-29T03:49:14.515Z,54.90
2022-12-29T03:51:51.722Z,54.83
2022-12-29T03:54:23.657Z,54.56
2022-12-29T03:56:56.361Z,54.31
2022-12-29T03:59:47.970Z,54.59
2022-12-29T04:02:18.811Z,54.60
2022-12-29T04:04:51.002Z,54.20
2022-12-29T04:07:24.046Z,55.24
2022-12-29T04:09:57.546Z,54.64
2022-12-29T04:12:32.839Z,54.98
2022-12-29T04:15:03.849Z,55.03
2022-12-29T04:17:36.735Z,54.67
2022-12-29T04:20:22.658Z,54.43
2022-12-29T04:23:04.220Z,53.83
2022-12-29T04:25:36.465Z,54.13
2022-12-29T04:28:08.963Z,53.38
2022-12-29T04:30:54.834Z,53.58
2022-12-29T04:33:28.999Z,53.95
2022-12-29T04:36:01.524Z,54.35
2022-12-29T04:38:36.460Z,53.73
2022-12-29T04:41:08.823Z,55.00
2022-12-29T04:43:41.941Z,55.05
2022-12-29T04:46:39.605Z,54.99
2022-12-29T04:49:20.855Z,55.20
2022-12-29T04:51:56.206Z,54.75
2022-12-29T04:54:29.826Z,54.99
2022-12-29T04:57:11.613Z,55.25
2022-12-29T04:59:42.982Z,54.55
2022-12-29T05:02:13.907Z,54.84
2022-12-29T05:04:50.921Z,55.49
2022-12-29T05:07:26.416Z,55.06
2022-12-29T05:10:00.771Z,54.73
2022-12-29T05:12:34.135Z,55.15
2022-12-29T05:15:05.967Z,54.73
2022-12-29T05:17:36.198Z,54.91
2022-12-29T05:20:07.396Z,54.85
2022-12-29T05:22:40.043Z,55.29
2022-12-29T05:25:14.743Z,55.32
2022-12-29T05:28:04.426Z,55.28
2022-12-29T05:30:45.070Z,55.39
2022-12-29T05:33:18.919Z,55.70
2022-12-29T05:35:51.546Z,55.50
2022-12-29T05:38:24.281Z,55.08
2022-12-29T05:40:57.572Z,54.90
2022-12-29T05:43:47.678Z,55.64
2022-12-29T05:46:43.246Z,55.44
2022-12-29T05:49:40.079Z,55.49
2022-12-29T05:52:34.199Z,55.86
2022-12-29T05:55:04.539Z,56.17
2022-12-29T05:57:39.479Z,56.19
2022-12-29T06:00:16.034Z,55.46
2022-12-29T06:02:51.615Z,55.35
2022-12-29T06:05:24.326Z,55.48
2022-12-29T06:07:56.987Z,55.37
2022-12-29T06:10:27.324Z,55.20
2022-12-29T06:13:12.398Z,55.41
2022-12-29T06:15:46.529Z,55.21
2022-12-29T06:18:20.110Z,55.18
2022-12-29T06:20:51.597Z,55.11
2022-12-29T06:23:25.490Z,55.17
2022-12-29T06:25:56.298Z,55.50
2022-12-29T06:28:29.527Z,54.87
2022-12-29T06:31:05.709Z,54.26
2022-12-29T06:33:35.765Z,53.69
2022-12-29T06:36:07.543Z,53.24
2022-12-29T06:38:38.699Z,53.89
2022-12-29T06:41:11.477Z,53.96
2022-12-29T06:43:50.665Z,53.97
2022-12-29T06:46:30.896Z,53.61
2022-12-29T06:49:02.623Z,53.50
2022-12-29T06:51:34.156Z,53.51
2022-12-29T06:54:06.376Z,52.87
2022-12-29T06:56:41.136Z,53.17
2022-12-29T06:59:14.490Z,52.90
2022-12-29T07:01:46.012Z,53.03
2022-12-29T07:04:17.671Z,53.44
2022-12-29T07:06:50.121Z,53.17
2022-12-29T07:09:20.497Z,52.34
2022-12-29T07:11:51.700Z,51.27
2022-12-29T07:14:28.405Z,51.47
2022-12-29T07:17:00.282Z,52.20
2022-12-29T07:19:32.488Z,51.75
2022-12-29T07:22:03.128Z,51.20
2022-12-29T07:24:33.117Z,51.32
2022-12-29T07:27:05.631Z,51.02
2022-12-29T07:29:40.352Z,50.96
2022-12-29T07:32:11.688Z,51.05
2022-12-29T07:34:42.778Z,50.73
2022-12-29T07:37:13.130Z,50.84
2022-12-29T07:39:43.534Z,50.90
2022-12-29T07:42:17.259Z,50.22
2022-12-29T07:44:57.568Z,49.89
2022-12-29T07:47:52.690Z,49.28
2022-12-29T07:50:23.840Z,47.82
2022-12-29T07:52:53.776Z,47.74
2022-12-29T07:55:26.463Z,47.05
2022-12-29T07:57:57.405Z,44.18
2022-12-29T08:00:30.115Z,41.71
2022-12-29T08:03:02.109Z,40.67
2022-12-29T08:05:32.456Z,39.42
2022-12-29T08:08:02.765Z,38.54
2022-12-29T08:10:33.509Z,36.67
2022-12-29T08:13:05.359Z,37.61
2022-12-29T08:15:38.682Z,36.39
2022-12-29T08:18:10.104Z,38.30
2022-12-29T08:20:41.885Z,38.84
2022-12-29T08:23:12.130Z,39.11
2022-12-29T08:25:43.541Z,38.00
2022-12-29T08:28:13.506Z,37.37
2022-12-29T08:30:46.484Z,38.01
2022-12-29T08:33:16.633Z,37.56
2022-12-29T08:35:46.766Z,36.97
2022-12-29T08:38:17.245Z,36.47
2022-12-29T08:40:48.957Z,37.87
2022-12-29T08:43:19.594Z,39.19
2022-12-29T08:45:52.339Z,39.17
2022-12-29T08:48:23.299Z,38.50
2022-12-29T08:50:55.593Z,38.49
2022-12-29T08:53:25.728Z,38.64
2022-12-29T08:56:04.975Z,38.83
2022-12-29T08:58:44.308Z,36.91
2022-12-29T09:01:17.404Z,35.51
2022-12-29T09:06:40.560Z,34.38
2022-12-29T09:09:11.418Z,35.25
2022-12-29T09:11:42.267Z,35.14
2022-12-29T09:14:12.998Z,34.87
2022-12-29T09:16:58.441Z,32.45
2022-12-29T09:19:30.185Z,34.30
2022-12-29T09:22:02.773Z,35.06
2022-12-29T09:24:35.584Z,35.42
2022-12-29T09:27:05.809Z,35.93
2022-12-29T09:29:35.896Z,35.68
2022-12-29T09:32:13.907Z,36.32
2022-12-29T09:34:47.855Z,36.56
2022-12-29T09:37:19.135Z,37.44
2022-12-29T09:39:54.146Z,37.19
2022-12-29T09:42:33.997Z,38.26
2022-12-29T09:45:17.222Z,38.37
2022-12-29T09:47:50.857Z,38.90
2022-12-29T09:50:28.532Z,39.10
2022-12-29T09:53:07.827Z,38.79
2022-12-29T09:55:42.560Z,39.06
2022-12-29T09:58:25.390Z,39.28
2022-12-29T10:01:02.557Z,39.58
2022-12-29T10:03:49.163Z,39.64
2022-12-29T10:06:26.591Z,40.00
2022-12-29T10:09:06.649Z,39.61
2022-12-29T10:11:58.327Z,39.60
2022-12-29T10:14:47.500Z,39.98
2022-12-29T10:17:33.759Z,39.46
2022-12-29T10:20:32.562Z,39.41
2022-12-29T10:23:19.466Z,39.43
2022-12-29T10:25:54.014Z,39.42
2022-12-29T10:28:27.664Z,39.11
2022-12-29T10:31:06.726Z,39.26
2022-12-29T10:33:43.440Z,39.29
2022-12-29T10:36:21.771Z,38.77
2022-12-29T10:39:04.481Z,38.16
2022-12-29T10:41:43.019Z,38.40
2022-12-29T10:44:19.689Z,37.98
2022-12-29T10:46:59.435Z,37.77
2022-12-29T10:49:33.460Z,37.47
2022-12-29T10:52:08.405Z,37.31
2022-12-29T10:54:49.312Z,37.29
2022-12-29T10:57:29.853Z,36.86
2022-12-29T11:00:00.738Z,37.91
2022-12-29T11:02:53.769Z,38.08
2022-12-29T11:05:32.691Z,37.40
2022-12-29T11:08:07.969Z,37.24
2022-12-29T11:10:42.114Z,37.87
2022-12-29T11:13:19.969Z,37.05
2022-12-29T11:15:55.049Z,36.94
2022-12-29T11:18:31.996Z,36.59
2022-12-29T11:21:06.207Z,36.49
2022-12-29T11:23:54.879Z,35.84
2022-12-29T11:26:31.945Z,36.70
2022-12-29T11:29:25.098Z,35.92
2022-12-29T11:31:59.110Z,36.24
2022-12-29T11:34:33.846Z,35.72
2022-12-29T11:37:08.491Z,35.93
2022-12-29T11:39:45.516Z,35.81
2022-12-29T11:42:20.359Z,36.07
2022-12-29T11:44:55.566Z,35.75
2022-12-29T11:47:33.220Z,36.20
2022-12-29T11:50:06.229Z,36.21
2022-12-29T11:52:40.636Z,36.32
2022-12-29T11:55:25.861Z,37.08
2022-12-29T11:58:02.736Z,36.81
2022-12-29T12:00:43.042Z,35.91
2022-12-29T12:03:22.580Z,36.92
2022-12-29T12:05:58.594Z,37.34
2022-12-29T12:08:41.120Z,37.32
2022-12-29T12:11:19.117Z,37.70
2022-12-29T12:14:02.579Z,37.58
2022-12-29T12:16:54.959Z,37.50
2022-12-29T12:19:36.574Z,38.01
2022-12-29T12:22:16.981Z,38.11
2022-12-29T12:24:53.695Z,38.23
2022-12-29T12:27:35.112Z,38.98
2022-12-29T12:30:09.715Z,38.90
2022-12-29T12:32:50.781Z,39.23
2022-12-29T12:35:35.370Z,39.81
2022-12-29T12:38:24.002Z,39.69
2022-12-29T12:41:09.350Z,39.58
2022-12-29T12:43:48.100Z,39.84
2022-12-29T12:46:45.391Z,39.89
2022-12-29T12:49:40.970Z,40.50
2022-12-29T12:52:26.708Z,40.53
2022-12-29T12:55:31.368Z,40.82
2022-12-29T12:58:13.666Z,40.74
2022-12-29T13:01:01.995Z,40.97
2022-12-29T13:03:48.745Z,41.30
2022-12-29T13:06:30.947Z,41.46
2022-12-29T13:09:28.888Z,41.83
2022-12-29T13:12:23.065Z,41.82
2022-12-29T13:15:09.183Z,42.09
2022-12-29T13:17:52.898Z,42.27
2022-12-29T13:20:34.383Z,42.46
2022-12-29T13:23:14.072Z,42.78
2022-12-29T13:25:54.498Z,42.87
2022-12-29T13:28:33.553Z,43.03
2022-12-29T13:31:15.864Z,43.47
2022-12-29T13:33:59.345Z,43.80
2022-12-29T13:36:37.784Z,44.60
2022-12-29T13:39:20.911Z,44.17
2022-12-29T13:41:56.661Z,44.90
2022-12-29T13:44:36.638Z,45.19
2022-12-29T13:47:22.646Z,45.55
2022-12-29T13:49:58.198Z,46.53
2022-12-29T13:52:40.915Z,46.89
2022-12-29T13:55:28.729Z,47.22
2022-12-29T13:58:08.803Z,47.55
2022-12-29T14:00:53.963Z,48.06
2022-12-29T14:03:49.157Z,47.76
2022-12-29T14:06:26.620Z,48.16
2022-12-29T14:08:59.613Z,48.19
2022-12-29T14:11:36.410Z,48.39
2022-12-29T14:14:17.936Z,48.30
2022-12-29T14:16:48.188Z,48.49
2022-12-29T14:19:23.414Z,47.76
2022-12-29T14:22:03.941Z,48.38
2022-12-29T14:24:44.204Z,49.00
2022-12-29T14:27:44.157Z,48.97
2022-12-29T14:30:43.862Z,49.00
2022-12-29T14:33:18.202Z,49.12
2022-12-29T14:35:53.259Z,49.34
2022-12-29T14:38:35.208Z,49.58
2022-12-29T14:41:30.780Z,49.68
2022-12-29T14:44:22.353Z,50.02
2022-12-29T14:47:01.577Z,50.38
2022-12-29T14:49:35.370Z,50.33
2022-12-29T14:52:17.546Z,50.47
2022-12-29T14:54:57.366Z,50.57
2022-12-29T14:57:36.855Z,50.40
2022-12-29T15:00:23.093Z,50.79
2022-12-29T15:03:03.833Z,50.72
2022-12-29T15:05:40.612Z,50.89
2022-12-29T15:08:11.347Z,51.10
2022-12-29T15:10:52.084Z,51.15
2022-12-29T15:13:26.900Z,51.32
2022-12-29T15:15:56.867Z,51.39
2022-12-29T15:18:32.891Z,52.09
2022-12-29T15:21:06.190Z,52.09
2022-12-29T15:23:38.602Z,52.05
2022-12-29T15:26:13.534Z,51.95
2022-12-29T15:28:45.653Z,52.67
2022-12-29T15:31:19.462Z,52.63
2022-12-29T15:33:54.441Z,52.72
2022-12-29T15:36:27.066Z,53.16
2022-12-29T15:38:57.774Z,53.34
2022-12-29T15:42:05.583Z,53.12
2022-12-29T15:44:41.533Z,53.35
2022-12-29T15:47:24.411Z,53.35
2022-12-29T15:50:01.567Z,53.20
2022-12-29T15:52:32.005Z,53.77
2022-12-29T15:55:06.226Z,54.10
2022-12-29T15:57:46.411Z,54.70
2022-12-29T16:00:28.130Z,54.16
2022-12-29T16:03:01.139Z,54.04
2022-12-29T16:05:37.316Z,54.66
2022-12-29T16:08:25.416Z,54.47
2022-12-29T16:10:57.463Z,54.63
2022-12-29T16:13:40.087Z,54.88
2022-12-29T16:16:20.911Z,54.50
2022-12-29T16:18:56.941Z,55.55
2022-12-29T16:21:34.274Z,54.56
2022-12-29T16:24:09.257Z,55.27
2022-12-29T16:26:41.318Z,55.37
2022-12-29T16:29:18.650Z,55.35
2022-12-29T16:32:01.947Z,55.73
2022-12-29T16:34:34.680Z,56.30
2022-12-29T16:37:09.037Z,56.33
2022-12-29T16:39:43.580Z,56.40
2022-12-29T16:42:44.351Z,56.75
2022-12-29T16:46:19.520Z,57.06
2022-12-29T16:48:54.783Z,57.00
2022-12-29T16:51:34.111Z,56.61
2022-12-29T16:54:08.434Z,57.28
2022-12-29T16:56:40.908Z,57.04
2022-12-29T16:59:33.077Z,57.53
2022-12-29T17:02:11.770Z,57.68
2022-12-29T17:04:42.929Z,57.98
2022-12-29T17:07:21.993Z,58.33
2022-12-29T17:09:54.484Z,58.24
2022-12-29T17:12:29.603Z,58.03
2022-12-29T17:15:03.191Z,58.23
2022-12-29T17:17:42.612Z,58.74
2022-12-29T17:20:22.592Z,59.55
2022-12-29T17:22:54.195Z,59.65
2022-12-29T17:25:34.240Z,59.43
2022-12-29T17:28:09.336Z,59.80
2022-12-29T17:30:47.509Z,60.04
2022-12-29T17:33:24.879Z,59.59
2022-12-29T17:35:55.843Z,60.16
2022-12-29T17:38:31.462Z,60.39
2022-12-29T17:41:02.607Z,60.47
2022-12-29T17:43:36.689Z,60.45
2022-12-29T17:46:13.049Z,60.23
2022-12-29T17:48:51.475Z,59.88
2022-12-29T17:51:24.729Z,60.17
2022-12-29T17:53:54.965Z,60.76
2022-12-29T17:56:24.811Z,60.70
2022-12-29T17:58:56.106Z,60.66
2022-12-29T18:01:31.031Z,60.87
2022-12-29T18:04:10.417Z,60.80
2022-12-29T18:06:43.902Z,60.86
2022-12-29T18:09:14.010Z,60.86
2022-12-29T18:11:46.112Z,60.45
2022-12-29T18:14:17.575Z,60.97
2022-12-29T18:16:47.951Z,61.50
2022-12-29T18:19:20.987Z,62.42
2022-12-29T18:21:51.253Z,62.53
2022-12-29T18:24:22.395Z,61.86
2022-12-29T18:26:56.399Z,60.58
2022-12-29T18:29:29.249Z,60.77
2022-12-29T18:32:02.752Z,60.42
2022-12-29T18:34:35.975Z,59.93
2022-12-29T18:37:07.038Z,60.63
2022-12-29T18:39:41.530Z,59.98
2022-12-29T18:42:20.935Z,59.85
2022-12-29T18:44:53.461Z,59.75
2022-12-29T18:47:23.978Z,59.73
2022-12-29T18:49:57.397Z,60.37
2022-12-29T18:52:28.729Z,60.52
2022-12-29T18:54:58.781Z,61.08
2022-12-29T18:57:30.729Z,60.79
2022-12-29T19:00:02.623Z,60.16
2022-12-29T19:02:33.507Z,60.12
2022-12-29T19:05:08.522Z,59.82
2022-12-29T19:07:38.675Z,59.06
2022-12-29T19:10:09.724Z,58.67
2022-12-29T19:12:40.009Z,58.55
2022-12-29T19:15:16.407Z,58.64
2022-12-29T19:17:46.697Z,58.45
2022-12-29T19:20:32.071Z,58.12
2022-12-29T19:23:06.310Z,57.89
2022-12-29T19:25:37.010Z,57.87
2022-12-29T19:28:09.079Z,58.18
2022-12-29T19:30:39.694Z,57.41
2022-12-29T19:33:10.526Z,57.50
2022-12-29T19:35:44.114Z,57.25
2022-12-29T19:38:15.746Z,57.11
2022-12-29T19:40:47.553Z,58.14
2022-12-29T19:43:18.402Z,57.88
2022-12-29T19:45:51.413Z,57.55
2022-12-29T19:48:25.873Z,57.91
2022-12-29T19:51:06.435Z,58.19
2022-12-29T19:53:37.466Z,59.48
2022-12-29T19:56:10.889Z,61.11
2022-12-29T19:58:47.576Z,62.29
2022-12-29T20:01:21.827Z,63.67
2022-12-29T20:03:53.953Z,65.37
2022-12-29T20:06:27.390Z,66.20
2022-12-29T20:09:00.173Z,67.62
2022-12-29T20:11:29.995Z,68.47
2022-12-29T20:14:01.051Z,69.55
2022-12-29T20:16:30.964Z,70.91
2022-12-29T20:19:04.556Z,71.67
2022-12-29T20:21:40.362Z,72.70
2022-12-29T20:24:10.754Z,73.52
2022-12-29T20:26:40.569Z,74.16
2022-12-29T20:29:11.432Z,74.81
2022-12-29T20:31:44.619Z,74.99
2022-12-29T20:34:15.662Z,75.24
2022-12-29T20:36:50.597Z,75.34
2022-12-29T20:39:22.952Z,74.69
2022-12-29T20:41:55.223Z,75.46
2022-12-29T20:44:26.023Z,75.94
2022-12-29T20:46:58.435Z,76.01
2022-12-29T20:49:30.745Z,76.19
2022-12-29T20:52:06.742Z,77.00
2022-12-29T20:54:39.726Z,76.86
2022-12-29T20:57:10.757Z,77.38
2022-12-29T20:59:40.758Z,77.19
2022-12-29T21:02:22.517Z,77.05
2022-12-29T21:05:22.878Z,76.69
2022-12-29T21:07:50.040Z,77.08
2022-12-29T21:10:21.606Z,76.83
2022-12-29T21:12:52.277Z,77.17
2022-12-29T21:15:22.964Z,76.41
2022-12-29T21:17:56.433Z,74.01
2022-12-29T21:20:32.870Z,74.19
2022-12-29T21:23:06.330Z,74.02
2022-12-29T21:25:41.225Z,73.77
2022-12-29T21:28:13.979Z,73.33
2022-12-29T21:30:45.344Z,73.67
2022-12-29T21:33:16.769Z,73.94
2022-12-29T21:35:46.794Z,74.05
2022-12-29T21:38:19.617Z,73.93
2022-12-29T21:40:49.481Z,73.81
2022-12-29T21:43:19.356Z,73.37
2022-12-29T21:45:50.176Z,73.91
2022-12-29T21:48:31.822Z,74.13
2022-12-29T21:51:26.967Z,74.56
2022-12-29T21:54:17.067Z,74.71
2022-12-29T21:56:52.782Z,74.78
2022-12-29T21:59:39.246Z,74.93
2022-12-29T22:02:34.740Z,74.44
2022-12-29T22:05:17.781Z,74.12
2022-12-29T22:08:00.670Z,74.04
2022-12-29T22:10:45.533Z,73.97
2022-12-29T22:13:16.962Z,73.54
2022-12-29T22:15:48.092Z,72.95
2022-12-29T22:18:19.648Z,73.20
2022-12-29T22:20:52.887Z,73.08
2022-12-29T22:23:29.947Z,73.02
2022-12-29T22:26:08.091Z,73.00
2022-12-29T22:28:39.598Z,73.17
2022-12-29T22:31:28.035Z,73.14
2022-12-29T22:33:59.300Z,73.40
2022-12-29T22:36:31.330Z,73.68
2022-12-29T22:39:01.721Z,73.46
2022-12-29T22:41:34.686Z,73.71
2022-12-29T22:44:09.537Z,73.84
2022-12-29T22:46:40.045Z,74.27
2022-12-29T22:49:10.232Z,74.53
2022-12-29T22:51:43.893Z,74.15
2022-12-29T22:54:16.418Z,74.13
2022-12-29T22:56:49.517Z,74.44
2022-12-29T22:59:21.417Z,74.18
2022-12-29T23:01:52.190Z,72.93
2022-12-29T23:05:01.705Z,72.88
2022-12-29T23:07:13.402Z,73.33
2022-12-29T23:09:43.576Z,71.62
2022-12-29T23:12:16.810Z,72.34
2022-12-29T23:14:47.020Z,72.73
2022-12-29T23:17:17.194Z,74.75
2022-12-29T23:19:48.274Z,75.68
2022-12-29T23:22:18.235Z,75.84
2022-12-29T23:24:49.247Z,74.49
2022-12-29T23:27:21.667Z,75.15
2022-12-29T23:29:51.949Z,75.42
2022-12-29T23:32:22.279Z,75.10
2022-12-29T23:34:52.110Z,75.19
2022-12-29T23:37:36.068Z,75.43
2022-12-29T23:40:07.445Z,74.75
2022-12-29T23:42:41.038Z,73.98
2022-12-29T23:45:15.197Z,74.83
2022-12-29T23:47:46.028Z,73.53
2022-12-29T23:50:18.058Z,74.08
2022-12-29T23:52:48.438Z,73.50
2022-12-29T23:55:19.143Z,73.81
2022-12-29T23:57:51.619Z,73.23
